Time;durP1;ratioP1;P1;durP2;ratioP2;P2;SDS_P1;SDS_P2;PMS_P1;PMS_P2;Temp;Humidity;BMP_temperature;BMP_pressure;BME280_temperature;BME280_humidity;BME280_pressure;Samples;Min_cycle;Max_cycle;Signal;HPM_P1;HPM_P2
2024/04/26 00:00:52;;;;;;;17.20;9.53;;;;;;;6.06;nan;100473.81;5401211;26;21166;-77
2024/04/26 00:03:20;;;;;;;16.57;10.43;;;;;;;4.06;nan;100201.47;5366880;26;20288;-76
2024/04/26 00:05:47;;;;;;;17.63;9.93;;;;;;;4.49;nan;100283.44;5402757;26;20288;-77
2024/04/26 00:08:16;;;;;;;17.10;10.00;;;;;;;3.19;nan;100054.72;5369037;26;20482;-76
2024/04/26 00:10:44;;;;;;;15.40;10.73;;;;;;;4.05;nan;100206.91;5398614;26;20482;-77
2024/04/26 00:13:12;;;;;;;17.17;10.40;;;;;;;4.06;nan;100227.19;5394777;26;21037;-77
2024/04/26 00:15:40;;;;;;;14.30;10.03;;;;;;;4.14;nan;100235.13;5366357;26;20467;-76
2024/04/26 00:18:08;;;;;;;15.77;10.20;;;;;;;3.84;nan;100165.06;5395306;26;20495;-77
2024/04/26 00:20:33;;;;;;;16.70;10.60;;;;;;;5.58;nan;100402.09;5399564;26;20513;-78
2024/04/26 00:22:59;;;;;;;16.67;10.60;;;;;;;5.37;nan;100378.78;5397120;26;20557;-78
2024/04/26 00:25:26;;;;;;;15.60;10.40;;;;;;;4.33;nan;100137.47;5400915;26;20341;-78
2024/04/26 00:27:52;;;;;;;15.77;10.43;;;;;;;4.40;nan;100173.75;5396333;26;20726;-77
2024/04/26 00:30:17;;;;;;;12.30;9.50;;;;;;;3.25;nan;100029.38;5361087;26;20470;-78
2024/04/26 00:32:43;;;;;;;13.67;9.33;;;;;;;4.78;nan;100204.91;5395606;26;20730;-81
2024/04/26 00:35:08;;;;;;;16.50;9.67;;;;;;;4.35;nan;100143.44;5395362;26;20271;-78
2024/04/26 00:37:34;;;;;;;18.30;11.20;;;;;;;3.54;nan;100015.50;5399957;26;20312;-79
2024/04/26 00:39:59;;;;;;;17.37;10.37;;;;;;;4.12;nan;100091.13;5396203;26;20349;-79
2024/04/26 00:42:25;;;;;;;15.77;10.80;;;;;;;4.19;nan;100117.78;5364835;26;20248;-78
2024/04/26 00:44:50;;;;;;;14.37;9.60;;;;;;;3.59;nan;100048.47;5356483;26;20714;-78
2024/04/26 00:47:16;;;;;;;15.63;11.73;;;;;;;6.25;nan;100459.16;5407103;26;20307;-79
2024/04/26 00:49:43;;;;;;;16.47;10.30;;;;;;;4.09;nan;100118.00;5401321;26;20299;-78
2024/04/26 00:52:11;;;;;;;17.57;10.40;;;;;;;4.37;nan;100155.53;5372640;26;20334;-77
2024/04/26 00:54:36;;;;;;;16.70;11.40;;;;;;;4.82;nan;100195.56;5370957;26;20478;-78
2024/04/26 00:57:05;;;;;;;16.30;11.13;;;;;;;3.19;nan;99959.34;5399065;26;20513;-78
2024/04/26 00:59:31;;;;;;;13.90;10.40;;;;;;;4.49;nan;100129.41;5399180;26;20240;-78
2024/04/26 01:01:57;;;;;;;15.80;10.90;;;;;;;3.12;nan;99908.00;5371823;26;20537;-78
2024/04/26 01:04:23;;;;;;;17.40;10.97;;;;;;;4.85;nan;100216.47;5370406;26;20479;-78
2024/04/26 01:06:51;;;;;;;18.13;10.63;;;;;;;3.12;nan;99903.53;5361020;26;21136;-79
2024/04/26 01:09:18;;;;;;;17.90;11.90;;;;;;;3.42;nan;99970.00;5369727;26;20860;-78
2024/04/26 01:11:44;;;;;;;18.60;12.60;;;;;;;3.51;nan;100011.38;5402334;26;20479;-79
2024/04/26 01:14:09;;;;;;;16.70;11.50;;;;;;;3.19;nan;99955.88;5397171;26;20952;-80
2024/04/26 01:16:37;;;;;;;14.67;10.90;;;;;;;3.34;nan;99986.75;5404337;26;20245;-81
2024/04/26 01:19:08;;;;;;;17.13;11.17;;;;;;;3.33;nan;100006.31;5372821;26;20658;-79
2024/04/26 01:21:36;;;;;;;15.20;11.00;;;;;;;3.77;nan;100071.25;5402616;26;20595;-80
2024/04/26 01:24:05;;;;;;;18.07;11.60;;;;;;;2.91;nan;99927.97;5372070;26;21205;-79
2024/04/26 01:26:33;;;;;;;15.87;11.40;;;;;;;3.44;nan;100030.78;5375226;26;20466;-78
2024/04/26 01:28:59;;;;;;;16.93;11.43;;;;;;;3.70;nan;100080.88;5369768;26;20498;-79
2024/04/26 01:31:24;;;;;;;17.50;11.50;;;;;;;3.71;nan;100069.28;5392635;26;20583;-79
2024/04/26 01:33:52;;;;;;;15.77;11.17;;;;;;;3.76;nan;100126.13;5369265;26;20685;-78
2024/04/26 01:36:18;;;;;;;15.50;10.63;;;;;;;3.26;nan;99962.09;5359853;26;20779;-79
2024/04/26 01:38:45;;;;;;;13.17;9.80;;;;;;;4.38;nan;100220.06;5396626;26;20490;-79
2024/04/26 01:41:11;;;;;;;15.87;10.40;;;;;;;4.15;nan;100204.09;5367919;26;20284;-79
2024/04/26 01:43:36;;;;;;;12.70;9.03;;;;;;;3.03;nan;99962.03;5397325;26;20472;-79
2024/04/26 01:46:02;;;;;;;13.80;8.63;;;;;;;2.86;nan;99919.69;5368523;26;20241;-79
2024/04/26 01:48:32;;;;;;;13.43;9.57;;;;;;;3.62;nan;100044.63;5372046;26;20241;-78
2024/04/26 01:50:58;;;;;;;13.20;8.40;;;;;;;3.06;nan;99974.94;5373622;26;20474;-79
2024/04/26 01:53:23;;;;;;;12.40;9.10;;;;;;;3.42;nan;100051.34;5369549;26;20551;-78
2024/04/26 01:55:49;;;;;;;13.97;9.10;;;;;;;3.41;nan;100047.84;5370797;26;20245;-79
2024/04/26 01:58:16;;;;;;;13.80;8.87;;;;;;;4.13;nan;100135.22;5394286;26;20299;-78
2024/04/26 02:00:42;;;;;;;13.70;9.37;;;;;;;2.97;nan;100002.47;5367369;26;20238;-78
2024/04/26 02:03:07;;;;;;;10.90;8.33;;;;;;;3.02;nan;99997.50;5394448;26;20523;-78
2024/04/26 02:05:37;;;;;;;12.67;8.37;;;;;;;3.91;nan;100144.81;5400444;26;20357;-78
2024/04/26 02:08:03;;;;;;;12.90;8.30;;;;;;;3.05;nan;100034.22;5366077;26;20275;-78
2024/04/26 02:10:31;;;;;;;12.43;7.50;;;;;;;5.79;nan;100444.03;5396227;26;20891;-78
2024/04/26 02:12:56;;;;;;;11.00;6.93;;;;;;;4.47;nan;100237.63;5400991;26;20248;-78
2024/04/26 02:15:22;;;;;;;11.50;8.00;;;;;;;2.84;nan;99979.16;5366863;26;20537;-79
2024/04/26 02:17:47;;;;;;;11.73;7.83;;;;;;;3.73;nan;100142.41;5399746;26;20272;-78
2024/04/26 02:20:18;;;;;;;10.93;7.63;;;;;;;3.97;nan;100145.94;5395955;26;20242;-78
2024/04/26 02:22:43;;;;;;;14.50;8.57;;;;;;;4.71;nan;100244.63;5368866;26;20241;-78
2024/04/26 02:25:09;;;;;;;11.30;6.90;;;;;;;6.06;nan;100432.03;5391310;26;20550;-80
2024/04/26 02:27:34;;;;;;;10.33;7.43;;;;;;;4.76;nan;100208.56;5392414;26;20322;-79
2024/04/26 02:29:59;;;;;;;12.60;8.00;;;;;;;4.46;nan;100183.69;5355182;26;20241;-79
2024/04/26 02:32:27;;;;;;;11.87;8.63;;;;;;;4.58;nan;100185.94;5400746;26;20308;-79
2024/04/26 02:34:55;;;;;;;13.27;8.33;;;;;;;3.50;nan;100080.47;5398286;26;20264;-79
2024/04/26 02:37:21;;;;;;;14.80;9.23;;;;;;;3.87;nan;100140.00;5390269;26;20529;-78
2024/04/26 02:39:46;;;;;;;13.03;9.37;;;;;;;4.23;nan;100220.81;5397416;26;20470;-79
2024/04/26 02:42:14;;;;;;;13.67;9.77;;;;;;;3.21;nan;100036.84;5368744;26;20562;-79
2024/04/26 02:44:39;;;;;;;11.83;8.67;;;;;;;3.88;nan;100126.59;5393750;26;20775;-79
2024/04/26 02:47:05;;;;;;;15.20;9.90;;;;;;;3.99;nan;100163.34;5398782;26;20474;-79
2024/04/26 02:49:30;;;;;;;15.73;10.00;;;;;;;2.68;nan;99916.47;5395626;26;20238;-78
2024/04/26 02:51:56;;;;;;;15.47;10.47;;;;;;;3.67;nan;100097.97;5369536;26;20241;-78
2024/04/26 02:54:21;;;;;;;12.87;10.17;;;;;;;4.47;nan;100200.44;5369736;26;20301;-78
2024/04/26 02:56:52;;;;;;;13.87;10.23;;;;;;;3.95;nan;100093.03;5403141;26;20653;-78
2024/04/26 02:59:17;;;;;;;15.80;9.93;;;;;;;2.68;nan;99895.28;5372977;26;20268;-78
2024/04/26 03:01:48;;;;;;;12.30;9.27;;;;;;;3.90;nan;100115.78;5367992;26;21019;-81
2024/04/26 03:04:14;;;;;;;15.27;9.90;;;;;;;2.80;nan;99973.34;5367668;26;20249;-78
2024/04/26 03:06:40;;;;;;;13.90;9.43;;;;;;;3.89;nan;100135.38;5401503;26;20459;-79
2024/04/26 03:09:11;;;;;;;16.97;10.30;;;;;;;2.82;nan;99975.84;5398587;26;20330;-78
2024/04/26 03:11:37;;;;;;;16.40;11.23;;;;;;;2.91;nan;99996.84;5370493;26;20530;-78
2024/04/26 03:14:05;;;;;;;17.93;11.60;;;;;;;5.78;nan;100460.16;5390974;26;20475;-78
2024/04/26 03:16:31;;;;;;;13.73;10.40;;;;;;;2.40;nan;99871.88;5397999;26;20382;-78
2024/04/26 03:18:56;;;;;;;15.73;10.47;;;;;;;4.74;nan;100230.97;5368396;26;20861;-79
2024/04/26 03:21:22;;;;;;;14.47;10.50;;;;;;;2.63;nan;99927.59;5369931;26;20257;-78
2024/04/26 03:23:49;;;;;;;15.13;11.03;;;;;;;4.30;nan;100178.44;5363733;26;20237;-78
2024/04/26 03:26:15;;;;;;;15.80;11.83;;;;;;;4.56;nan;100215.31;5395039;26;20250;-78
2024/04/26 03:28:47;;;;;;;15.90;11.80;;;;;;;3.21;nan;99983.00;5399712;26;20930;-77
2024/04/26 03:31:22;;;;;;;23.00;12.10;;;;;;;4.07;nan;100165.13;5392761;26;20250;-78
2024/04/26 03:33:48;;;;;;;16.87;11.50;;;;;;;4.49;nan;100246.25;5397667;26;20471;-79
2024/04/26 03:36:18;;;;;;;16.17;11.43;;;;;;;3.37;nan;100002.31;5368965;26;20523;-78
2024/04/26 03:38:46;;;;;;;22.87;11.93;;;;;;;3.07;nan;99968.66;5397097;26;20522;-78
2024/04/26 03:41:11;;;;;;;14.20;10.00;;;;;;;2.27;nan;99837.16;5398855;26;20483;-79
2024/04/26 03:43:39;;;;;;;17.37;10.83;;;;;;;3.98;nan;100118.41;5368781;26;21210;-79
2024/04/26 03:46:07;;;;;;;17.73;10.13;;;;;;;4.46;nan;100198.78;5393405;26;20257;-79
2024/04/26 03:48:32;;;;;;;17.60;11.30;;;;;;;3.37;nan;100007.63;5371179;26;20549;-79
2024/04/26 03:50:58;;;;;;;16.40;11.20;;;;;;;4.21;nan;100175.00;5395387;26;21017;-79
2024/04/26 03:53:23;;;;;;;12.93;10.00;;;;;;;3.38;nan;100046.41;5393700;26;20379;-79
2024/04/26 03:55:49;;;;;;;18.97;11.17;;;;;;;4.19;nan;100181.50;5362489;26;20267;-79
2024/04/26 03:58:17;;;;;;;14.67;10.67;;;;;;;4.66;nan;100241.69;5396291;26;20303;-79
2024/04/26 04:00:42;;;;;;;18.17;11.63;;;;;;;3.09;nan;99983.38;5390146;26;20593;-77
2024/04/26 04:03:08;;;;;;;16.03;10.47;;;;;;;3.93;nan;100089.72;5395830;26;20889;-77
2024/04/26 04:05:33;;;;;;;14.33;10.00;;;;;;;4.33;nan;100179.94;5395127;26;20244;-77
2024/04/26 04:07:58;;;;;;;15.97;10.33;;;;;;;3.33;nan;100053.22;5361204;26;20670;-78
2024/04/26 04:10:25;;;;;;;15.10;11.53;;;;;;;3.97;nan;100160.03;5366977;26;20313;-78
2024/04/26 04:12:51;;;;;;;15.80;10.70;;;;;;;2.72;nan;99994.59;5364758;26;20290;-78
2024/04/26 04:15:19;;;;;;;15.43;10.70;;;;;;;6.03;nan;100528.25;5396504;26;20474;-79
2024/04/26 04:17:44;;;;;;;16.73;10.90;;;;;;;5.28;nan;100379.03;5368389;26;20757;-78
2024/04/26 04:20:10;;;;;;;17.20;12.00;;;;;;;4.78;nan;100343.06;5367255;26;21043;-78
2024/04/26 04:22:35;;;;;;;15.97;11.77;;;;;;;3.30;nan;100064.16;5365963;26;20260;-78
2024/04/26 04:25:01;;;;;;;17.60;11.70;;;;;;;4.45;nan;100250.22;5372018;26;20348;-77
2024/04/26 04:27:26;;;;;;;17.60;11.20;;;;;;;3.98;nan;100206.78;5397614;26;20253;-78
2024/04/26 04:29:52;;;;;;;16.53;10.63;;;;;;;4.06;nan;100205.94;5374729;26;20493;-78
2024/04/26 04:32:17;;;;;;;14.33;10.17;;;;;;;3.15;nan;99997.75;5400506;26;20342;-78
2024/04/26 04:34:43;;;;;;;16.47;10.73;;;;;;;3.28;nan;100098.78;5402122;26;20249;-77
2024/04/26 04:37:11;;;;;;;18.03;10.90;;;;;;;4.60;nan;100267.13;5374712;26;20551;-78
2024/04/26 04:39:40;;;;;;;17.07;11.10;;;;;;;3.70;nan;100141.88;5404005;26;20233;-79
2024/04/26 04:42:06;;;;;;;16.80;11.37;;;;;;;4.54;nan;100304.97;5373811;26;20467;-78
2024/04/26 04:44:34;;;;;;;15.47;11.77;;;;;;;4.69;nan;100283.84;5399410;26;20478;-78
2024/04/26 04:46:59;;;;;;;19.13;12.20;;;;;;;4.73;nan;100355.03;5397152;26;20494;-77
2024/04/26 04:49:27;;;;;;;15.47;10.10;;;;;;;2.79;nan;100045.03;5397774;26;20476;-77
2024/04/26 04:51:53;;;;;;;18.27;12.30;;;;;;;3.16;nan;100123.97;5401076;26;20399;-78
2024/04/26 04:54:20;;;;;;;18.07;11.47;;;;;;;3.89;nan;100222.91;5398711;26;20462;-79
2024/04/26 04:56:48;;;;;;;18.50;12.40;;;;;;;3.24;nan;100123.13;5371403;26;20330;-78
2024/04/26 04:59:15;;;;;;;15.97;11.00;;;;;;;3.30;nan;100122.47;5397637;26;21323;-78
2024/04/26 05:01:40;;;;;;;17.80;11.63;;;;;;;4.32;nan;100295.94;5371242;26;20471;-77
2024/04/26 05:04:06;;;;;;;15.50;10.90;;;;;;;3.09;nan;100130.94;5398348;26;20515;-78
2024/04/26 05:06:31;;;;;;;17.57;11.20;;;;;;;4.47;nan;100335.88;5392305;26;22121;-78
2024/04/26 05:08:59;;;;;;;14.90;9.97;;;;;;;4.05;nan;100267.97;5372532;26;20794;-78
2024/04/26 05:11:24;;;;;;;18.03;10.97;;;;;;;5.92;nan;100581.03;5396061;26;20246;-78
2024/04/26 05:13:52;;;;;;;13.60;10.63;;;;;;;4.10;nan;100262.16;5398726;26;20917;-78
2024/04/26 05:16:42;;;;;;;16.00;10.40;;;;;;;3.03;nan;100121.00;5369305;26;20590;-78
2024/04/26 05:19:06;;;;;;;13.00;10.10;;;;;;;3.38;nan;100200.16;5392662;26;20360;-78
2024/04/26 05:21:32;;;;;;;19.00;11.47;;;;;;;2.97;nan;100080.09;5380380;26;21135;-78
2024/04/26 05:24:00;;;;;;;15.13;11.03;;;;;;;2.83;nan;100108.09;5394395;26;20241;-77
2024/04/26 05:26:25;;;;;;;15.33;10.47;;;;;;;3.98;nan;100288.22;5408068;26;20245;-78
2024/04/26 05:28:53;;;;;;;18.00;11.40;;;;;;;4.58;nan;100406.41;5400347;26;20552;-78
2024/04/26 05:31:18;;;;;;;17.97;11.30;;;;;;;4.15;nan;100275.75;5367342;26;20314;-78
2024/04/26 05:33:44;;;;;;;15.03;11.17;;;;;;;2.69;nan;100058.44;5391877;26;21749;-78
2024/04/26 05:36:09;;;;;;;15.07;10.90;;;;;;;3.49;nan;100219.34;5395165;26;20350;-78
2024/04/26 05:38:35;;;;;;;18.57;11.90;;;;;;;2.93;nan;100152.97;5363895;26;20313;-78
2024/04/26 05:41:01;;;;;;;15.73;11.20;;;;;;;3.62;nan;100275.38;5369137;26;20714;-77
2024/04/26 05:43:26;;;;;;;16.00;11.03;;;;;;;6.08;nan;100650.22;5394815;26;20303;-78
2024/04/26 05:45:52;;;;;;;19.73;12.17;;;;;;;3.73;nan;100245.84;5394341;26;20571;-78
2024/04/26 05:48:18;;;;;;;17.00;11.50;;;;;;;3.45;nan;100194.19;5399127;26;20793;-78
2024/04/26 05:50:48;;;;;;;17.70;12.50;;;;;;;4.67;nan;100406.19;5395280;26;20459;-78
2024/04/26 05:53:13;;;;;;;20.23;11.23;;;;;;;4.21;nan;100321.00;5369674;26;20276;-78
2024/04/26 05:55:39;;;;;;;17.03;11.07;;;;;;;6.28;nan;100629.31;5373863;26;20475;-78
2024/04/26 05:58:08;;;;;;;13.57;9.47;;;;;;;4.19;nan;100336.28;5369484;26;20281;-78
2024/04/26 06:00:40;;;;;;;14.87;9.03;;;;;;;3.29;nan;100179.94;5370275;26;20263;-78
2024/04/26 06:03:07;;;;;;;13.77;9.33;;;;;;;3.59;nan;100133.31;5395128;26;21113;-78
2024/04/26 06:05:35;;;;;;;17.83;11.03;;;;;;;4.52;nan;100301.66;5371228;26;20478;-78
2024/04/26 06:08:03;;;;;;;18.33;10.80;;;;;;;4.18;nan;100209.88;5399899;26;20474;-78
2024/04/26 06:10:29;;;;;;;14.97;10.63;;;;;;;4.15;nan;100222.66;5370673;26;20545;-77
2024/04/26 06:12:57;;;;;;;14.07;9.83;;;;;;;5.03;nan;100423.50;5397583;26;20546;-78
2024/04/26 06:15:25;;;;;;;18.53;11.13;;;;;;;3.76;nan;100152.66;5398328;26;20245;-77
2024/04/26 06:17:50;;;;;;;13.93;9.83;;;;;;;4.72;nan;100308.22;5398795;26;20564;-79
2024/04/26 06:20:17;;;;;;;16.93;9.40;;;;;;;4.79;nan;100283.59;5398166;26;21233;-77
2024/04/26 06:22:42;;;;;;;16.83;11.10;;;;;;;5.29;nan;100370.03;5395702;26;20245;-78
2024/04/26 06:25:08;;;;;;;12.70;9.43;;;;;;;4.66;nan;100221.25;5397283;26;20530;-79
2024/04/26 06:27:38;;;;;;;17.07;11.23;;;;;;;4.39;nan;100211.91;5396867;26;20242;-78
2024/04/26 06:30:04;;;;;;;14.90;10.60;;;;;;;4.23;nan;100169.53;5397658;26;20595;-78
2024/04/26 06:32:29;;;;;;;18.90;11.50;;;;;;;4.22;nan;100163.41;5398338;26;20483;-78
2024/04/26 06:34:55;;;;;;;15.37;10.50;;;;;;;3.98;nan;100139.63;5397389;26;20293;-78
2024/04/26 06:37:20;;;;;;;17.20;11.03;;;;;;;3.24;nan;99999.41;5371727;26;20299;-78
2024/04/26 06:39:45;;;;;;;15.47;9.57;;;;;;;4.61;nan;100159.84;5396983;26;20701;-78
2024/04/26 06:42:11;;;;;;;15.57;10.83;;;;;;;5.92;nan;100374.22;5392561;26;20241;-78
2024/04/26 06:44:36;;;;;;;15.93;10.60;;;;;;;4.45;nan;100176.69;5394703;26;20689;-78
2024/04/26 06:47:05;;;;;;;14.20;10.23;;;;;;;4.07;nan;100075.72;5371242;26;20280;-77
2024/04/26 06:49:31;;;;;;;16.13;9.50;;;;;;;3.56;nan;99955.19;5394344;26;20675;-78
2024/04/26 06:51:56;;;;;;;15.07;9.23;;;;;;;4.51;nan;100173.38;5396323;26;20480;-77
2024/04/26 06:54:24;;;;;;;14.87;9.57;;;;;;;4.12;nan;100088.47;5371533;26;20920;-78
2024/04/26 06:56:49;;;;;;;15.70;9.40;;;;;;;4.88;nan;100176.25;5369493;26;20253;-78
2024/04/26 06:59:16;;;;;;;13.93;9.40;;;;;;;6.15;nan;100397.34;5396677;26;20483;-77
2024/04/26 07:01:43;;;;;;;14.80;8.93;;;;;;;5.25;nan;100246.41;5398002;26;20291;-78
2024/04/26 07:04:08;;;;;;;13.83;9.00;;;;;;;4.09;nan;100049.00;5366655;26;20533;-78
2024/04/26 07:06:39;;;;;;;17.30;9.10;;;;;;;4.60;nan;100107.75;5371883;26;20542;-78
2024/04/26 07:09:05;;;;;;;13.90;8.40;;;;;;;3.95;nan;99991.38;5396012;26;20809;-77
2024/04/26 07:11:30;;;;;;;16.63;8.70;;;;;;;4.92;nan;100182.88;5394787;26;20583;-77
2024/04/26 07:13:58;;;;;;;15.20;9.07;;;;;;;4.46;nan;100097.88;5395197;26;20657;-77
2024/04/26 07:16:24;;;;;;;12.97;8.17;;;;;;;4.86;nan;100139.25;5366570;26;20329;-77
2024/04/26 07:18:49;;;;;;;17.13;8.00;;;;;;;4.42;nan;100051.44;5396029;26;20455;-76
2024/04/26 07:21:15;;;;;;;15.20;7.03;;;;;;;4.37;nan;100054.63;5395183;26;20237;-76
2024/04/26 07:23:40;;;;;;;13.50;7.40;;;;;;;5.35;nan;100168.06;5395282;26;20246;-77
2024/04/26 07:26:06;;;;;;;15.70;6.90;;;;;;;4.40;nan;100040.19;5368831;26;20345;-77
2024/04/26 07:28:32;;;;;;;14.93;7.80;;;;;;;5.11;nan;100117.75;5402392;26;20991;-77
2024/04/26 07:30:57;;;;;;;11.47;7.03;;;;;;;4.84;nan;100104.06;5395987;26;20314;-77
2024/04/26 07:33:25;;;;;;;14.43;7.00;;;;;;;5.42;nan;100145.03;5394016;26;20529;-77
2024/04/26 07:35:53;;;;;;;11.37;7.10;;;;;;;4.70;nan;99988.75;5382853;26;20260;-78
2024/04/26 07:38:18;;;;;;;11.87;6.93;;;;;;;4.75;nan;99989.06;5366899;26;20462;-78
2024/04/26 07:40:44;;;;;;;10.33;5.83;;;;;;;4.52;nan;99921.88;5397243;26;20592;-77
2024/04/26 07:43:12;;;;;;;12.37;6.80;;;;;;;6.07;nan;100156.78;5393483;26;20776;-77
2024/04/26 07:45:38;;;;;;;14.20;5.80;;;;;;;5.24;nan;100032.06;5368842;26;20308;-78
2024/04/26 07:48:05;;;;;;;12.77;6.37;;;;;;;5.15;nan;99994.09;5392676;26;21198;-77
2024/04/26 07:50:32;;;;;;;10.03;5.47;;;;;;;4.08;nan;99926.13;5392738;26;20312;-76
2024/04/26 07:52:58;;;;;;;9.57;5.90;;;;;;;4.47;nan;100094.22;5350555;26;20478;-78
2024/04/26 07:55:25;;;;;;;11.70;4.70;;;;;;;3.75;nan;100036.09;5362463;26;20529;-79
2024/04/26 07:57:50;;;;;;;9.10;3.90;;;;;;;4.06;nan;100105.91;5366984;26;20237;-80
2024/04/26 08:00:16;;;;;;;7.73;2.80;;;;;;;6.05;nan;100414.41;5388929;26;20591;-80
2024/04/26 08:02:44;;;;;;;5.83;2.57;;;;;;;3.39;nan;100119.63;5398957;26;20357;-79
2024/04/26 08:05:10;;;;;;;5.40;2.10;;;;;;;3.71;nan;100107.25;5363219;26;20241;-77
2024/04/26 08:07:35;;;;;;;7.60;2.00;;;;;;;3.76;nan;100139.41;5388501;26;20954;-77
2024/04/26 08:10:04;;;;;;;5.83;1.90;;;;;;;2.76;nan;99992.41;5366852;26;20274;-77
2024/04/26 08:12:29;;;;;;;5.17;2.07;;;;;;;3.68;nan;100163.28;5391064;26;20242;-77
2024/04/26 08:14:55;;;;;;;5.17;2.30;;;;;;;4.46;nan;100284.59;5363446;26;21261;-77
2024/04/26 08:17:21;;;;;;;6.83;2.83;;;;;;;3.77;nan;100132.25;5395759;26;21049;-77
2024/04/26 08:19:48;;;;;;;5.87;2.53;;;;;;;2.39;nan;99954.09;5365720;26;20245;-77
2024/04/26 08:22:16;;;;;;;5.70;2.40;;;;;;;3.64;nan;100148.69;5357175;26;20476;-77
2024/04/26 08:24:42;;;;;;;8.80;2.87;;;;;;;4.10;nan;100243.56;5398585;26;20530;-78
2024/04/26 08:33:52;;;;;;;8.70;3.97;;;;;;;6.81;nan;100528.13;5402385;21;20559;-71
2024/04/26 08:36:17;;;;;;;8.90;5.13;;;;;;;6.91;nan;100547.34;5394831;26;20470;-71
2024/04/26 08:38:43;;;;;;;10.37;5.23;;;;;;;6.70;nan;100502.72;5387138;26;20611;-70
2024/04/26 08:41:11;;;;;;;18.10;7.10;;;;;;;7.07;nan;100533.84;5361798;26;20341;-71
2024/04/26 08:43:37;;;;;;;9.10;5.53;;;;;;;7.10;nan;100476.66;5361854;26;20482;-71
2024/04/26 08:46:02;;;;;;;11.60;5.70;;;;;;;7.38;nan;100498.97;5386827;26;21066;-71
2024/04/26 08:48:29;;;;;;;13.90;6.83;;;;;;;7.81;nan;100539.13;5389878;26;20240;-71
2024/04/26 08:50:56;;;;;;;11.57;6.30;;;;;;;7.89;nan;100519.47;5391498;26;20287;-71
2024/04/26 08:53:22;;;;;;;11.07;6.63;;;;;;;7.51;nan;100454.78;5390542;26;20851;-71
2024/04/26 08:55:50;;;;;;;12.30;5.40;;;;;;;7.80;nan;100465.34;5360758;26;21234;-71
2024/04/26 08:58:16;;;;;;;10.50;5.33;;;;;;;7.61;nan;100407.25;5354927;26;20241;-71
2024/04/26 09:00:43;;;;;;;9.03;4.73;;;;;;;7.57;nan;100371.28;5379127;26;20517;-70
2024/04/26 09:03:09;;;;;;;7.80;4.00;;;;;;;7.50;nan;100335.72;5387834;26;20483;-71
2024/04/26 09:05:36;;;;;;;6.83;3.30;;;;;;;7.92;nan;100378.38;5366289;26;20515;-71
2024/04/26 09:08:02;;;;;;;7.33;2.80;;;;;;;7.56;nan;100325.09;5389468;26;20338;-70
2024/04/26 09:10:32;;;;;;;6.70;3.10;;;;;;;8.17;nan;100374.47;5400477;26;20509;-70
2024/04/26 09:12:58;;;;;;;7.30;3.03;;;;;;;8.17;nan;100340.56;5397139;26;20249;-71
2024/04/26 09:15:24;;;;;;;6.57;2.43;;;;;;;7.38;nan;100200.13;5391963;26;20597;-71
2024/04/26 09:17:49;;;;;;;5.90;1.97;;;;;;;8.17;nan;100340.56;5406573;26;20495;-71
2024/04/26 09:20:17;;;;;;;6.80;1.50;;;;;;;8.18;nan;100279.94;5353143;26;20263;-70
2024/04/26 09:22:44;;;;;;;5.13;1.20;;;;;;;8.33;nan;100296.66;5396163;26;20229;-70
2024/04/26 09:25:10;;;;;;;6.00;1.63;;;;;;;8.20;nan;100259.19;5395968;26;21004;-71
2024/04/26 09:27:35;;;;;;;6.60;2.47;;;;;;;8.00;nan;100211.00;5394669;26;20470;-70
2024/04/26 09:30:02;;;;;;;7.50;2.23;;;;;;;8.44;nan;100241.88;5361990;26;20359;-70
2024/04/26 09:32:27;;;;;;;9.50;1.60;;;;;;;8.02;nan;100177.75;5396032;26;20636;-71
2024/04/26 09:34:54;;;;;;;6.30;1.80;;;;;;;8.80;nan;100300.44;5392765;26;20828;-70
2024/04/26 09:37:21;;;;;;;5.50;1.50;;;;;;;8.60;nan;100276.28;5386630;26;20388;-70
2024/04/26 09:39:47;;;;;;;4.80;1.37;;;;;;;8.75;nan;100286.81;5394679;26;20550;-70
2024/04/26 09:42:21;;;;;;;5.60;1.30;;;;;;;8.92;nan;100277.41;5389968;26;20594;-70
2024/04/26 09:44:53;;;;;;;4.17;1.00;;;;;;;8.91;nan;100277.59;5392265;26;20914;-71
2024/04/26 09:47:40;;;;;;;4.80;1.40;;;;;;;8.68;nan;100289.47;5391836;26;20471;-70
2024/04/26 09:50:06;;;;;;;5.73;1.40;;;;;;;8.27;nan;100198.59;5359231;26;20539;-70
2024/04/26 09:52:31;;;;;;;5.67;1.23;;;;;;;8.75;nan;100262.75;5397996;26;20471;-70
2024/04/26 09:54:58;;;;;;;8.40;1.30;;;;;;;8.67;nan;100222.81;5394263;26;20300;-70
2024/04/26 09:57:23;;;;;;;4.40;0.93;;;;;;;8.47;nan;100198.69;5396006;26;20937;-70
2024/04/26 09:59:51;;;;;;;7.00;1.90;;;;;;;8.92;nan;100288.13;5394815;26;20474;-70
2024/04/26 10:02:19;;;;;;;4.20;1.00;;;;;;;8.81;nan;100267.31;5349847;26;20261;-70
2024/04/26 10:04:44;;;;;;;4.23;1.00;;;;;;;8.49;nan;100248.25;5393092;26;20914;-71
2024/04/26 10:07:20;;;;;;;5.23;1.27;;;;;;;8.37;nan;100233.81;5391607;26;21405;-70
2024/04/26 10:09:56;;;;;;;5.30;1.10;;;;;;;8.59;nan;100263.91;5378429;26;20283;-70
2024/04/26 10:12:29;;;;;;;6.10;1.47;;;;;;;8.85;nan;100305.16;5358043;26;20541;-70
2024/04/26 10:15:09;;;;;;;5.77;1.20;;;;;;;8.72;nan;100317.47;5396751;26;20594;-70
2024/04/26 10:17:48;;;;;;;6.03;1.40;;;;;;;8.62;nan;100295.63;5392796;26;20665;-70
2024/04/26 10:20:14;;;;;;;5.90;1.37;;;;;;;8.48;nan;100275.22;5394227;26;21352;-70
2024/04/26 10:22:39;;;;;;;5.43;1.37;;;;;;;8.76;nan;100283.13;5395589;26;20938;-70
2024/04/26 10:25:05;;;;;;;4.20;1.13;;;;;;;8.89;nan;100288.53;5391094;26;20265;-70
2024/04/26 10:27:33;;;;;;;5.13;1.27;;;;;;;9.01;nan;100275.38;5361963;26;20300;-70
2024/04/26 10:29:59;;;;;;;4.53;0.90;;;;;;;8.52;nan;100250.53;5394566;26;20298;-70
2024/04/26 10:32:26;;;;;;;4.27;1.07;;;;;;;8.52;nan;100234.50;5361469;26;21104;-71
2024/04/26 10:34:51;;;;;;;4.30;1.10;;;;;;;8.77;nan;100231.31;5389289;26;21083;-70
2024/04/26 10:37:18;;;;;;;5.60;1.10;;;;;;;9.30;nan;100300.97;5394114;26;21181;-70
2024/04/26 10:39:46;;;;;;;5.40;1.10;;;;;;;9.22;nan;100274.38;5395748;26;20374;-70
2024/04/26 10:42:12;;;;;;;5.17;0.90;;;;;;;9.21;nan;100292.31;5388368;26;20463;-70
2024/04/26 10:44:40;;;;;;;4.67;1.20;;;;;;;9.28;nan;100266.34;5365204;26;21093;-70
2024/04/26 10:47:06;;;;;;;5.93;0.80;;;;;;;9.04;nan;100222.28;5359556;26;20515;-70
2024/04/26 10:49:31;;;;;;;6.60;0.90;;;;;;;9.81;nan;100296.88;5390922;26;21489;-70
2024/04/26 10:52:01;;;;;;;4.87;0.87;;;;;;;9.84;nan;100277.72;5364025;26;20622;-70
2024/04/26 10:54:27;;;;;;;4.07;0.90;;;;;;;9.56;nan;100219.84;5392411;26;20249;-71
2024/04/26 10:56:55;;;;;;;5.33;0.90;;;;;;;10.21;nan;100268.16;5394367;26;20522;-71
2024/04/26 10:59:25;;;;;;;6.33;1.00;;;;;;;10.03;nan;100268.00;5364481;26;20588;-70
2024/04/26 11:01:57;;;;;;;4.30;1.00;;;;;;;10.30;nan;100288.38;5364231;26;20591;-70
2024/04/26 11:04:23;;;;;;;4.73;1.10;;;;;;;10.04;nan;100297.28;5346770;26;22242;-70
2024/04/26 11:06:51;;;;;;;4.70;0.87;;;;;;;10.03;nan;100295.59;5388187;26;20518;-73
2024/04/26 11:09:19;;;;;;;4.63;0.90;;;;;;;10.05;nan;100293.53;5390402;26;20471;-70
2024/04/26 11:11:48;;;;;;;4.70;1.30;;;;;;;10.02;nan;100301.19;5354196;26;20874;-71
2024/04/26 11:14:14;;;;;;;5.67;1.03;;;;;;;9.40;nan;100201.50;5394813;26;20458;-70
2024/04/26 11:16:40;;;;;;;5.03;0.80;;;;;;;9.48;nan;100263.69;5357689;26;20597;-70
2024/04/26 11:19:07;;;;;;;5.07;0.90;;;;;;;9.67;nan;100312.13;5391337;26;20475;-70
2024/04/26 11:21:33;;;;;;;7.70;1.00;;;;;;;9.82;nan;100304.69;5385124;26;20463;-70
2024/04/26 11:23:58;;;;;;;4.90;0.90;;;;;;;9.33;nan;100254.22;5390889;26;20579;-71
2024/04/26 11:26:24;;;;;;;3.90;0.70;;;;;;;9.59;nan;100275.66;5390528;26;20288;-71
2024/04/26 11:28:49;;;;;;;4.43;0.90;;;;;;;9.79;nan;100321.19;5399145;26;20284;-70
2024/04/26 11:31:14;;;;;;;3.67;0.70;;;;;;;9.81;nan;100307.59;5390228;26;20248;-70
2024/04/26 11:33:40;;;;;;;6.00;0.90;;;;;;;9.34;nan;100199.66;5390751;26;20245;-70
2024/04/26 11:36:05;;;;;;;4.10;0.80;;;;;;;10.44;nan;100317.81;5358770;26;20241;-70
2024/04/26 11:38:31;;;;;;;4.67;0.93;;;;;;;10.64;nan;100307.84;5364595;26;20249;-70
2024/04/26 11:40:56;;;;;;;4.37;0.77;;;;;;;10.62;nan;100249.06;5392314;26;20610;-71
2024/04/26 11:43:21;;;;;;;5.53;0.93;;;;;;;10.58;nan;100247.84;5395131;26;20597;-70
2024/04/26 11:45:47;;;;;;;6.17;0.90;;;;;;;10.71;nan;100268.44;5385564;26;20320;-70